sensor_id;sensor_type;location;lat;lon;timestamp;P1;durP1;ratioP1;P2;durP2;ratioP2
80297;SDS011;69599;52.622;9.230;2023-08-31T00:02:01;9.95;;;6.32;;
80297;SDS011;69599;52.622;9.230;2023-08-31T00:04:26;11.32;;;6.38;;
80297;SDS011;69599;52.622;9.230;2023-08-31T00:06:52;11.68;;;5.55;;
80297;SDS011;69599;52.622;9.230;2023-08-31T00:09:17;9.27;;;5.95;;
80297;SDS011;69599;52.622;9.230;2023-08-31T00:11:44;9.07;;;5.97;;
80297;SDS011;69599;52.622;9.230;2023-08-31T00:14:09;9.23;;;5.65;;
80297;SDS011;69599;52.622;9.230;2023-08-31T00:16:35;11.43;;;5.57;;
80297;SDS011;69599;52.622;9.230;2023-08-31T00:19:02;11.45;;;5.95;;
80297;SDS011;69599;52.622;9.230;2023-08-31T00:21:27;8.52;;;5.10;;
80297;SDS011;69599;52.622;9.230;2023-08-31T00:23:53;10.13;;;5.53;;
80297;SDS011;69599;52.622;9.230;2023-08-31T00:26:19;9.30;;;5.80;;
80297;SDS011;69599;52.622;9.230;2023-08-31T00:28:45;9.80;;;6.38;;
80297;SDS011;69599;52.622;9.230;2023-08-31T00:31:10;12.05;;;5.85;;
80297;SDS011;69599;52.622;9.230;2023-08-31T00:33:38;11.90;;;5.30;;
80297;SDS011;69599;52.622;9.230;2023-08-31T00:36:04;12.65;;;5.25;;
80297;SDS011;69599;52.622;9.230;2023-08-31T00:38:32;15.68;;;6.13;;
80297;SDS011;69599;52.622;9.230;2023-08-31T00:40:58;7.55;;;4.88;;
80297;SDS011;69599;52.622;9.230;2023-08-31T00:43:23;8.43;;;4.93;;
80297;SDS011;69599;52.622;9.230;2023-08-31T00:45:50;7.65;;;4.90;;
80297;SDS011;69599;52.622;9.230;2023-08-31T00:48:18;10.48;;;5.22;;
80297;SDS011;69599;52.622;9.230;2023-08-31T00:50:46;8.65;;;4.78;;
80297;SDS011;69599;52.622;9.230;2023-08-31T00:53:15;8.98;;;5.80;;
80297;SDS011;69599;52.622;9.230;2023-08-31T00:55:41;8.13;;;4.90;;
80297;SDS011;69599;52.622;9.230;2023-08-31T00:58:09;10.75;;;5.32;;
80297;SDS011;69599;52.622;9.230;2023-08-31T01:06:25;8.50;;;4.93;;
80297;SDS011;69599;52.622;9.230;2023-08-31T01:09:00;11.18;;;5.10;;
80297;SDS011;69599;52.622;9.230;2023-08-31T01:11:37;8.63;;;5.28;;
80297;SDS011;69599;52.622;9.230;2023-08-31T01:14:11;10.10;;;5.65;;
80297;SDS011;69599;52.622;9.230;2023-08-31T01:16:39;10.43;;;5.95;;
80297;SDS011;69599;52.622;9.230;2023-08-31T01:19:08;9.93;;;5.82;;
80297;SDS011;69599;52.622;9.230;2023-08-31T01:21:42;10.27;;;5.95;;
80297;SDS011;69599;52.622;9.230;2023-08-31T01:24:11;9.35;;;4.88;;
80297;SDS011;69599;52.622;9.230;2023-08-31T01:26:37;10.77;;;5.85;;
80297;SDS011;69599;52.622;9.230;2023-08-31T01:29:03;8.38;;;4.40;;
80297;SDS011;69599;52.622;9.230;2023-08-31T01:31:28;7.82;;;4.35;;
80297;SDS011;69599;52.622;9.230;2023-08-31T01:33:54;8.13;;;4.18;;
80297;SDS011;69599;52.622;9.230;2023-08-31T01:36:29;7.20;;;4.13;;
80297;SDS011;69599;52.622;9.230;2023-08-31T01:38:58;8.27;;;3.97;;
80297;SDS011;69599;52.622;9.230;2023-08-31T01:41:28;7.22;;;4.00;;
80297;SDS011;69599;52.622;9.230;2023-08-31T01:43:56;7.00;;;3.47;;
80297;SDS011;69599;52.622;9.230;2023-08-31T01:46:22;7.60;;;3.63;;
80297;SDS011;69599;52.622;9.230;2023-08-31T01:48:47;9.50;;;4.30;;
80297;SDS011;69599;52.622;9.230;2023-08-31T01:51:12;11.30;;;4.28;;
80297;SDS011;69599;52.622;9.230;2023-08-31T01:53:38;9.75;;;4.05;;
80297;SDS011;69599;52.622;9.230;2023-08-31T01:56:03;6.95;;;3.53;;
80297;SDS011;69599;52.622;9.230;2023-08-31T01:58:29;10.93;;;4.15;;
80297;SDS011;69599;52.622;9.230;2023-08-31T02:00:55;10.57;;;4.90;;
80297;SDS011;69599;52.622;9.230;2023-08-31T02:03:21;8.57;;;4.13;;
80297;SDS011;69599;52.622;9.230;2023-08-31T02:05:47;9.30;;;3.85;;
80297;SDS011;69599;52.622;9.230;2023-08-31T02:08:12;7.35;;;4.32;;
80297;SDS011;69599;52.622;9.230;2023-08-31T02:10:41;10.63;;;4.63;;
80297;SDS011;69599;52.622;9.230;2023-08-31T02:13:06;10.68;;;4.40;;
80297;SDS011;69599;52.622;9.230;2023-08-31T02:15:31;7.75;;;4.03;;
80297;SDS011;69599;52.622;9.230;2023-08-31T02:17:57;9.73;;;3.85;;
80297;SDS011;69599;52.622;9.230;2023-08-31T02:20:22;6.38;;;4.25;;
80297;SDS011;69599;52.622;9.230;2023-08-31T02:22:48;8.18;;;4.47;;
80297;SDS011;69599;52.622;9.230;2023-08-31T02:25:14;9.93;;;4.20;;
80297;SDS011;69599;52.622;9.230;2023-08-31T02:27:41;7.38;;;4.28;;
80297;SDS011;69599;52.622;9.230;2023-08-31T02:30:07;7.97;;;4.35;;
80297;SDS011;69599;52.622;9.230;2023-08-31T02:32:32;7.93;;;4.50;;
80297;SDS011;69599;52.622;9.230;2023-08-31T02:34:58;8.32;;;4.57;;
80297;SDS011;69599;52.622;9.230;2023-08-31T02:37:23;9.48;;;4.88;;
80297;SDS011;69599;52.622;9.230;2023-08-31T02:39:49;9.32;;;4.30;;
80297;SDS011;69599;52.622;9.230;2023-08-31T02:42:14;7.85;;;4.38;;
80297;SDS011;69599;52.622;9.230;2023-08-31T02:44:40;6.72;;;3.92;;
80297;SDS011;69599;52.622;9.230;2023-08-31T02:47:05;9.38;;;4.20;;
80297;SDS011;69599;52.622;9.230;2023-08-31T02:49:30;7.93;;;3.95;;
80297;SDS011;69599;52.622;9.230;2023-08-31T02:51:56;7.70;;;3.95;;
80297;SDS011;69599;52.622;9.230;2023-08-31T02:54:21;8.13;;;4.15;;
80297;SDS011;69599;52.622;9.230;2023-08-31T02:56:47;6.45;;;4.20;;
80297;SDS011;69599;52.622;9.230;2023-08-31T02:59:12;8.43;;;4.05;;
80297;SDS011;69599;52.622;9.230;2023-08-31T03:01:37;6.32;;;3.75;;
80297;SDS011;69599;52.622;9.230;2023-08-31T03:04:04;10.15;;;3.90;;
80297;SDS011;69599;52.622;9.230;2023-08-31T03:06:31;9.50;;;4.05;;
80297;SDS011;69599;52.622;9.230;2023-08-31T03:08:57;9.75;;;4.65;;
80297;SDS011;69599;52.622;9.230;2023-08-31T03:11:23;10.90;;;3.80;;
80297;SDS011;69599;52.622;9.230;2023-08-31T03:13:48;8.98;;;3.97;;
80297;SDS011;69599;52.622;9.230;2023-08-31T03:16:13;6.65;;;3.70;;
80297;SDS011;69599;52.622;9.230;2023-08-31T03:18:39;9.38;;;3.65;;
80297;SDS011;69599;52.622;9.230;2023-08-31T03:21:04;5.55;;;3.55;;
80297;SDS011;69599;52.622;9.230;2023-08-31T03:23:30;10.77;;;4.55;;
80297;SDS011;69599;52.622;9.230;2023-08-31T03:25:55;7.60;;;4.10;;
80297;SDS011;69599;52.622;9.230;2023-08-31T03:28:21;5.95;;;3.53;;
80297;SDS011;69599;52.622;9.230;2023-08-31T03:30:53;5.32;;;3.65;;
80297;SDS011;69599;52.622;9.230;2023-08-31T03:33:19;10.48;;;4.18;;
80297;SDS011;69599;52.622;9.230;2023-08-31T03:35:45;8.68;;;4.35;;
80297;SDS011;69599;52.622;9.230;2023-08-31T03:38:10;9.07;;;3.92;;
80297;SDS011;69599;52.622;9.230;2023-08-31T03:40:35;5.80;;;3.60;;
80297;SDS011;69599;52.622;9.230;2023-08-31T03:43:01;7.43;;;3.92;;
80297;SDS011;69599;52.622;9.230;2023-08-31T03:45:26;9.15;;;3.95;;
80297;SDS011;69599;52.622;9.230;2023-08-31T03:47:52;7.90;;;3.97;;
80297;SDS011;69599;52.622;9.230;2023-08-31T03:50:17;9.45;;;4.50;;
80297;SDS011;69599;52.622;9.230;2023-08-31T03:52:43;8.27;;;3.70;;
80297;SDS011;69599;52.622;9.230;2023-08-31T03:55:09;8.43;;;3.92;;
80297;SDS011;69599;52.622;9.230;2023-08-31T03:57:34;6.90;;;3.92;;
80297;SDS011;69599;52.622;9.230;2023-08-31T04:00:00;8.70;;;3.85;;
80297;SDS011;69599;52.622;9.230;2023-08-31T04:02:25;7.70;;;4.82;;
80297;SDS011;69599;52.622;9.230;2023-08-31T04:04:51;9.38;;;3.85;;
80297;SDS011;69599;52.622;9.230;2023-08-31T04:07:16;9.10;;;3.63;;
80297;SDS011;69599;52.622;9.230;2023-08-31T04:09:41;8.07;;;4.55;;
80297;SDS011;69599;52.622;9.230;2023-08-31T04:12:07;11.05;;;4.32;;
80297;SDS011;69599;52.622;9.230;2023-08-31T04:14:32;7.43;;;4.32;;
80297;SDS011;69599;52.622;9.230;2023-08-31T04:16:58;11.70;;;4.47;;
80297;SDS011;69599;52.622;9.230;2023-08-31T04:19:23;9.20;;;5.00;;
80297;SDS011;69599;52.622;9.230;2023-08-31T04:21:48;7.28;;;4.90;;
80297;SDS011;69599;52.622;9.230;2023-08-31T04:24:14;7.32;;;3.92;;
80297;SDS011;69599;52.622;9.230;2023-08-31T04:26:39;7.80;;;3.97;;
80297;SDS011;69599;52.622;9.230;2023-08-31T04:29:05;9.85;;;4.15;;
80297;SDS011;69599;52.622;9.230;2023-08-31T04:31:31;9.63;;;4.60;;
80297;SDS011;69599;52.622;9.230;2023-08-31T04:33:57;7.90;;;4.13;;
80297;SDS011;69599;52.622;9.230;2023-08-31T04:36:22;9.70;;;4.38;;
80297;SDS011;69599;52.622;9.230;2023-08-31T04:38:48;10.27;;;4.45;;
80297;SDS011;69599;52.622;9.230;2023-08-31T04:41:16;10.60;;;4.68;;
80297;SDS011;69599;52.622;9.230;2023-08-31T04:43:41;12.07;;;4.95;;
80297;SDS011;69599;52.622;9.230;2023-08-31T04:46:07;8.93;;;5.28;;
80297;SDS011;69599;52.622;9.230;2023-08-31T04:48:33;14.30;;;6.15;;
80297;SDS011;69599;52.622;9.230;2023-08-31T04:50:58;9.75;;;5.63;;
80297;SDS011;69599;52.622;9.230;2023-08-31T04:53:23;10.18;;;5.13;;
80297;SDS011;69599;52.622;9.230;2023-08-31T04:55:49;9.85;;;5.78;;
80297;SDS011;69599;52.622;9.230;2023-08-31T04:58:15;10.50;;;6.00;;
80297;SDS011;69599;52.622;9.230;2023-08-31T05:00:40;10.93;;;5.80;;
80297;SDS011;69599;52.622;9.230;2023-08-31T05:03:05;11.95;;;6.28;;
80297;SDS011;69599;52.622;9.230;2023-08-31T05:05:31;12.93;;;6.25;;
80297;SDS011;69599;52.622;9.230;2023-08-31T05:07:56;11.05;;;6.78;;
80297;SDS011;69599;52.622;9.230;2023-08-31T05:10:22;14.10;;;6.70;;
80297;SDS011;69599;52.622;9.230;2023-08-31T05:12:48;14.50;;;7.63;;
80297;SDS011;69599;52.622;9.230;2023-08-31T05:15:13;13.93;;;6.80;;
80297;SDS011;69599;52.622;9.230;2023-08-31T05:17:38;12.23;;;6.45;;
80297;SDS011;69599;52.622;9.230;2023-08-31T05:20:04;11.80;;;6.50;;
80297;SDS011;69599;52.622;9.230;2023-08-31T05:22:30;14.70;;;7.38;;
80297;SDS011;69599;52.622;9.230;2023-08-31T05:24:55;14.52;;;6.85;;
80297;SDS011;69599;52.622;9.230;2023-08-31T05:27:21;14.40;;;7.53;;
80297;SDS011;69599;52.622;9.230;2023-08-31T05:29:46;14.45;;;7.65;;
80297;SDS011;69599;52.622;9.230;2023-08-31T05:32:12;10.82;;;7.20;;
80297;SDS011;69599;52.622;9.230;2023-08-31T05:34:37;12.80;;;7.60;;
80297;SDS011;69599;52.622;9.230;2023-08-31T05:37:04;13.13;;;6.70;;
80297;SDS011;69599;52.622;9.230;2023-08-31T05:39:30;15.07;;;8.30;;
80297;SDS011;69599;52.622;9.230;2023-08-31T05:41:55;16.40;;;7.60;;
80297;SDS011;69599;52.622;9.230;2023-08-31T05:44:21;16.80;;;8.40;;
80297;SDS011;69599;52.622;9.230;2023-08-31T05:46:47;13.98;;;7.70;;
80297;SDS011;69599;52.622;9.230;2023-08-31T05:49:12;13.25;;;7.10;;
80297;SDS011;69599;52.622;9.230;2023-08-31T05:51:38;14.77;;;8.30;;
80297;SDS011;69599;52.622;9.230;2023-08-31T05:54:03;14.45;;;7.57;;
80297;SDS011;69599;52.622;9.230;2023-08-31T05:56:29;14.90;;;8.07;;
80297;SDS011;69599;52.622;9.230;2023-08-31T05:58:54;13.77;;;8.18;;
80297;SDS011;69599;52.622;9.230;2023-08-31T06:01:21;18.38;;;8.50;;
80297;SDS011;69599;52.622;9.230;2023-08-31T06:03:49;15.10;;;8.40;;
80297;SDS011;69599;52.622;9.230;2023-08-31T06:06:15;12.95;;;7.18;;
80297;SDS011;69599;52.622;9.230;2023-08-31T06:08:40;16.00;;;8.23;;
80297;SDS011;69599;52.622;9.230;2023-08-31T06:11:07;15.73;;;8.15;;
80297;SDS011;69599;52.622;9.230;2023-08-31T06:13:33;13.75;;;7.53;;
80297;SDS011;69599;52.622;9.230;2023-08-31T06:15:58;13.35;;;7.65;;
80297;SDS011;69599;52.622;9.230;2023-08-31T06:18:24;13.32;;;7.63;;
80297;SDS011;69599;52.622;9.230;2023-08-31T06:20:50;15.02;;;8.57;;
80297;SDS011;69599;52.622;9.230;2023-08-31T06:23:16;15.20;;;8.25;;
80297;SDS011;69599;52.622;9.230;2023-08-31T06:25:41;13.27;;;7.57;;
80297;SDS011;69599;52.622;9.230;2023-08-31T06:28:07;15.57;;;7.90;;
80297;SDS011;69599;52.622;9.230;2023-08-31T06:30:34;13.73;;;7.60;;
80297;SDS011;69599;52.622;9.230;2023-08-31T06:32:59;13.85;;;7.68;;
80297;SDS011;69599;52.622;9.230;2023-08-31T06:35:25;13.00;;;8.30;;
80297;SDS011;69599;52.622;9.230;2023-08-31T06:37:51;12.98;;;8.20;;
80297;SDS011;69599;52.622;9.230;2023-08-31T06:40:16;19.23;;;8.90;;
80297;SDS011;69599;52.622;9.230;2023-08-31T06:42:42;14.45;;;9.15;;
80297;SDS011;69599;52.622;9.230;2023-08-31T06:45:08;13.25;;;8.43;;
80297;SDS011;69599;52.622;9.230;2023-08-31T06:47:34;16.95;;;8.50;;
80297;SDS011;69599;52.622;9.230;2023-08-31T06:50:00;15.95;;;9.23;;
80297;SDS011;69599;52.622;9.230;2023-08-31T06:52:26;15.10;;;10.05;;
80297;SDS011;69599;52.622;9.230;2023-08-31T06:54:52;16.08;;;9.98;;
80297;SDS011;69599;52.622;9.230;2023-08-31T06:57:23;19.40;;;10.02;;
80297;SDS011;69599;52.622;9.230;2023-08-31T06:59:49;14.10;;;9.82;;
80297;SDS011;69599;52.622;9.230;2023-08-31T07:02:14;18.48;;;10.55;;
80297;SDS011;69599;52.622;9.230;2023-08-31T07:04:40;16.23;;;10.27;;
80297;SDS011;69599;52.622;9.230;2023-08-31T07:07:05;15.45;;;10.15;;
80297;SDS011;69599;52.622;9.230;2023-08-31T07:09:31;18.45;;;11.60;;
80297;SDS011;69599;52.622;9.230;2023-08-31T07:11:56;19.05;;;12.57;;
80297;SDS011;69599;52.622;9.230;2023-08-31T07:14:23;19.80;;;12.02;;
80297;SDS011;69599;52.622;9.230;2023-08-31T07:16:49;25.08;;;14.00;;
80297;SDS011;69599;52.622;9.230;2023-08-31T07:19:15;19.17;;;12.48;;
80297;SDS011;69599;52.622;9.230;2023-08-31T07:21:40;18.85;;;13.27;;
80297;SDS011;69599;52.622;9.230;2023-08-31T07:24:06;19.27;;;12.50;;
80297;SDS011;69599;52.622;9.230;2023-08-31T07:26:32;18.33;;;12.73;;
80297;SDS011;69599;52.622;9.230;2023-08-31T07:28:57;18.25;;;13.25;;
80297;SDS011;69599;52.622;9.230;2023-08-31T07:31:23;20.48;;;12.70;;
80297;SDS011;69599;52.622;9.230;2023-08-31T07:33:48;15.55;;;11.60;;
80297;SDS011;69599;52.622;9.230;2023-08-31T07:36:13;18.30;;;13.18;;
80297;SDS011;69599;52.622;9.230;2023-08-31T07:38:40;18.67;;;11.52;;
80297;SDS011;69599;52.622;9.230;2023-08-31T07:41:06;19.90;;;11.77;;
80297;SDS011;69599;52.622;9.230;2023-08-31T07:43:31;16.52;;;11.55;;
80297;SDS011;69599;52.622;9.230;2023-08-31T07:45:56;16.73;;;10.80;;
80297;SDS011;69599;52.622;9.230;2023-08-31T07:48:22;16.73;;;11.15;;
80297;SDS011;69599;52.622;9.230;2023-08-31T07:50:48;19.33;;;11.45;;
80297;SDS011;69599;52.622;9.230;2023-08-31T07:53:16;18.10;;;11.93;;
80297;SDS011;69599;52.622;9.230;2023-08-31T07:55:50;19.00;;;12.43;;
80297;SDS011;69599;52.622;9.230;2023-08-31T07:58:16;18.15;;;12.23;;
80297;SDS011;69599;52.622;9.230;2023-08-31T08:00:41;20.17;;;13.10;;
80297;SDS011;69599;52.622;9.230;2023-08-31T08:03:06;18.95;;;12.52;;
80297;SDS011;69599;52.622;9.230;2023-08-31T08:05:32;19.25;;;12.35;;
80297;SDS011;69599;52.622;9.230;2023-08-31T08:07:57;16.67;;;11.70;;
80297;SDS011;69599;52.622;9.230;2023-08-31T08:10:22;17.35;;;11.23;;
80297;SDS011;69599;52.622;9.230;2023-08-31T08:12:48;18.52;;;11.10;;
80297;SDS011;69599;52.622;9.230;2023-08-31T08:15:13;16.38;;;9.93;;
80297;SDS011;69599;52.622;9.230;2023-08-31T08:17:39;15.48;;;10.95;;
80297;SDS011;69599;52.622;9.230;2023-08-31T08:20:05;14.98;;;9.85;;
80297;SDS011;69599;52.622;9.230;2023-08-31T08:22:31;12.15;;;8.07;;
80297;SDS011;69599;52.622;9.230;2023-08-31T08:24:57;10.60;;;7.45;;
80297;SDS011;69599;52.622;9.230;2023-08-31T08:27:22;11.68;;;7.30;;
80297;SDS011;69599;52.622;9.230;2023-08-31T08:29:48;10.70;;;6.82;;
80297;SDS011;69599;52.622;9.230;2023-08-31T08:32:13;13.13;;;7.30;;
80297;SDS011;69599;52.622;9.230;2023-08-31T08:34:39;12.52;;;7.75;;
80297;SDS011;69599;52.622;9.230;2023-08-31T08:37:04;11.13;;;7.18;;
80297;SDS011;69599;52.622;9.230;2023-08-31T08:39:30;8.65;;;6.65;;
80297;SDS011;69599;52.622;9.230;2023-08-31T08:41:57;10.82;;;6.53;;
80297;SDS011;69599;52.622;9.230;2023-08-31T08:44:25;10.75;;;6.43;;
80297;SDS011;69599;52.622;9.230;2023-08-31T08:46:53;9.82;;;7.20;;
80297;SDS011;69599;52.622;9.230;2023-08-31T08:49:21;9.00;;;6.53;;
80297;SDS011;69599;52.622;9.230;2023-08-31T08:51:47;8.35;;;6.45;;
80297;SDS011;69599;52.622;9.230;2023-08-31T08:54:14;9.77;;;6.65;;
80297;SDS011;69599;52.622;9.230;2023-08-31T08:56:39;11.50;;;5.93;;
80297;SDS011;69599;52.622;9.230;2023-08-31T08:59:05;9.27;;;6.13;;
80297;SDS011;69599;52.622;9.230;2023-08-31T09:01:31;9.35;;;5.45;;
80297;SDS011;69599;52.622;9.230;2023-08-31T09:03:58;7.45;;;4.97;;
80297;SDS011;69599;52.622;9.230;2023-08-31T09:06:24;7.90;;;4.80;;
80297;SDS011;69599;52.622;9.230;2023-08-31T09:08:53;8.20;;;5.15;;
80297;SDS011;69599;52.622;9.230;2023-08-31T09:11:21;5.95;;;4.97;;
80297;SDS011;69599;52.622;9.230;2023-08-31T09:13:49;7.38;;;4.80;;
80297;SDS011;69599;52.622;9.230;2023-08-31T09:16:25;9.10;;;4.75;;
80297;SDS011;69599;52.622;9.230;2023-08-31T09:18:51;9.35;;;5.65;;
80297;SDS011;69599;52.622;9.230;2023-08-31T09:21:17;8.13;;;5.22;;
80297;SDS011;69599;52.622;9.230;2023-08-31T09:23:47;7.18;;;4.90;;
80297;SDS011;69599;52.622;9.230;2023-08-31T09:26:13;6.85;;;4.65;;
80297;SDS011;69599;52.622;9.230;2023-08-31T09:28:40;6.57;;;4.22;;
80297;SDS011;69599;52.622;9.230;2023-08-31T09:31:06;5.25;;;3.60;;
80297;SDS011;69599;52.622;9.230;2023-08-31T09:33:32;5.32;;;3.70;;
80297;SDS011;69599;52.622;9.230;2023-08-31T09:36:02;4.72;;;3.10;;
80297;SDS011;69599;52.622;9.230;2023-08-31T09:38:29;4.05;;;2.70;;
80297;SDS011;69599;52.622;9.230;2023-08-31T09:41:04;5.80;;;3.20;;
80297;SDS011;69599;52.622;9.230;2023-08-31T09:43:33;4.82;;;2.30;;
80297;SDS011;69599;52.622;9.230;2023-08-31T09:45:59;5.97;;;2.65;;
80297;SDS011;69599;52.622;9.230;2023-08-31T09:48:26;4.43;;;2.58;;
80297;SDS011;69599;52.622;9.230;2023-08-31T09:50:52;4.45;;;2.55;;
80297;SDS011;69599;52.622;9.230;2023-08-31T09:53:17;5.90;;;2.55;;
80297;SDS011;69599;52.622;9.230;2023-08-31T09:55:45;5.88;;;2.35;;
80297;SDS011;69599;52.622;9.230;2023-08-31T09:58:12;3.50;;;2.30;;
80297;SDS011;69599;52.622;9.230;2023-08-31T10:00:37;4.50;;;2.40;;
80297;SDS011;69599;52.622;9.230;2023-08-31T10:03:04;5.15;;;2.95;;
80297;SDS011;69599;52.622;9.230;2023-08-31T10:05:30;4.72;;;2.47;;
80297;SDS011;69599;52.622;9.230;2023-08-31T10:07:56;4.72;;;2.58;;
80297;SDS011;69599;52.622;9.230;2023-08-31T10:10:23;5.15;;;3.10;;
80297;SDS011;69599;52.622;9.230;2023-08-31T10:12:49;3.95;;;2.65;;
80297;SDS011;69599;52.622;9.230;2023-08-31T10:15:18;4.50;;;3.00;;
80297;SDS011;69599;52.622;9.230;2023-08-31T10:17:44;4.28;;;2.97;;
80297;SDS011;69599;52.622;9.230;2023-08-31T10:20:10;6.25;;;2.85;;
80297;SDS011;69599;52.622;9.230;2023-08-31T10:22:37;5.45;;;3.40;;
80297;SDS011;69599;52.622;9.230;2023-08-31T10:25:03;5.40;;;3.17;;
80297;SDS011;69599;52.622;9.230;2023-08-31T10:27:40;4.80;;;2.50;;
80297;SDS011;69599;52.622;9.230;2023-08-31T10:41:01;3.60;;;2.10;;
80297;SDS011;69599;52.622;9.230;2023-08-31T10:51:30;3.60;;;2.15;;
80297;SDS011;69599;52.622;9.230;2023-08-31T10:54:06;5.25;;;2.88;;
80297;SDS011;69599;52.622;9.230;2023-08-31T10:56:40;2.95;;;2.22;;
80297;SDS011;69599;52.622;9.230;2023-08-31T10:59:24;3.70;;;1.90;;
80297;SDS011;69599;52.622;9.230;2023-08-31T11:01:57;3.05;;;2.15;;
80297;SDS011;69599;52.622;9.230;2023-08-31T11:04:25;4.32;;;2.53;;
80297;SDS011;69599;52.622;9.230;2023-08-31T11:09:41;3.38;;;1.83;;
80297;SDS011;69599;52.622;9.230;2023-08-31T11:12:07;6.28;;;1.98;;
80297;SDS011;69599;52.622;9.230;2023-08-31T11:14:33;4.57;;;1.83;;
80297;SDS011;69599;52.622;9.230;2023-08-31T11:16:59;2.10;;;1.30;;
80297;SDS011;69599;52.622;9.230;2023-08-31T11:19:26;2.97;;;1.30;;
80297;SDS011;69599;52.622;9.230;2023-08-31T11:21:53;2.35;;;1.10;;
80297;SDS011;69599;52.622;9.230;2023-08-31T11:24:19;2.70;;;1.15;;
80297;SDS011;69599;52.622;9.230;2023-08-31T11:26:47;1.75;;;1.02;;
80297;SDS011;69599;52.622;9.230;2023-08-31T11:29:14;2.35;;;1.33;;
80297;SDS011;69599;52.622;9.230;2023-08-31T11:31:40;4.18;;;1.40;;
80297;SDS011;69599;52.622;9.230;2023-08-31T11:34:06;3.38;;;1.48;;
80297;SDS011;69599;52.622;9.230;2023-08-31T11:36:32;4.85;;;1.65;;
80297;SDS011;69599;52.622;9.230;2023-08-31T11:38:58;3.47;;;1.90;;
80297;SDS011;69599;52.622;9.230;2023-08-31T11:41:23;4.10;;;2.10;;
80297;SDS011;69599;52.622;9.230;2023-08-31T11:43:49;3.22;;;1.80;;
80297;SDS011;69599;52.622;9.230;2023-08-31T11:46:15;3.42;;;2.28;;
80297;SDS011;69599;52.622;9.230;2023-08-31T11:48:41;4.00;;;2.15;;
80297;SDS011;69599;52.622;9.230;2023-08-31T11:51:06;3.42;;;2.45;;
80297;SDS011;69599;52.622;9.230;2023-08-31T11:53:32;3.40;;;2.20;;
80297;SDS011;69599;52.622;9.230;2023-08-31T11:56:01;4.05;;;1.60;;
80297;SDS011;69599;52.622;9.230;2023-08-31T11:58:27;5.05;;;1.60;;
80297;SDS011;69599;52.622;9.230;2023-08-31T12:00:59;2.10;;;1.52;;
80297;SDS011;69599;52.622;9.230;2023-08-31T12:03:25;2.63;;;1.55;;
80297;SDS011;69599;52.622;9.230;2023-08-31T12:05:52;1.70;;;1.30;;
80297;SDS011;69599;52.622;9.230;2023-08-31T12:08:26;2.45;;;1.38;;
80297;SDS011;69599;52.622;9.230;2023-08-31T12:10:52;4.00;;;1.40;;
80297;SDS011;69599;52.622;9.230;2023-08-31T12:13:18;5.32;;;1.25;;
80297;SDS011;69599;52.622;9.230;2023-08-31T12:15:43;3.50;;;0.90;;
80297;SDS011;69599;52.622;9.230;2023-08-31T12:18:13;2.13;;;1.00;;
80297;SDS011;69599;52.622;9.230;2023-08-31T12:20:45;2.15;;;0.88;;
80297;SDS011;69599;52.622;9.230;2023-08-31T12:23:16;2.72;;;1.15;;
80297;SDS011;69599;52.622;9.230;2023-08-31T12:25:59;3.30;;;0.93;;
80297;SDS011;69599;52.622;9.230;2023-08-31T12:28:26;2.03;;;0.60;;
80297;SDS011;69599;52.622;9.230;2023-08-31T12:30:52;1.88;;;0.80;;
80297;SDS011;69599;52.622;9.230;2023-08-31T12:33:18;2.35;;;0.85;;
80297;SDS011;69599;52.622;9.230;2023-08-31T12:35:44;2.20;;;1.20;;
80297;SDS011;69599;52.622;9.230;2023-08-31T12:38:11;2.75;;;1.23;;
80297;SDS011;69599;52.622;9.230;2023-08-31T12:40:36;3.97;;;1.48;;
80297;SDS011;69599;52.622;9.230;2023-08-31T12:43:08;2.60;;;1.45;;
80297;SDS011;69599;52.622;9.230;2023-08-31T12:45:34;4.28;;;1.42;;
80297;SDS011;69599;52.622;9.230;2023-08-31T12:48:01;2.70;;;1.10;;
80297;SDS011;69599;52.622;9.230;2023-08-31T12:50:29;2.67;;;1.27;;
80297;SDS011;69599;52.622;9.230;2023-08-31T12:52:55;1.88;;;1.10;;
80297;SDS011;69599;52.622;9.230;2023-08-31T12:55:20;3.35;;;1.20;;
80297;SDS011;69599;52.622;9.230;2023-08-31T12:57:45;3.10;;;1.30;;
80297;SDS011;69599;52.622;9.230;2023-08-31T13:00:11;3.30;;;1.20;;
80297;SDS011;69599;52.622;9.230;2023-08-31T13:02:38;1.88;;;1.17;;
80297;SDS011;69599;52.622;9.230;2023-08-31T13:05:03;2.95;;;1.23;;
80297;SDS011;69599;52.622;9.230;2023-08-31T13:07:30;3.42;;;1.27;;
80297;SDS011;69599;52.622;9.230;2023-08-31T13:09:57;5.57;;;1.35;;
80297;SDS011;69599;52.622;9.230;2023-08-31T13:12:23;3.22;;;1.38;;
80297;SDS011;69599;52.622;9.230;2023-08-31T13:14:48;2.58;;;1.20;;
80297;SDS011;69599;52.622;9.230;2023-08-31T13:17:14;1.88;;;1.13;;
80297;SDS011;69599;52.622;9.230;2023-08-31T13:19:39;2.60;;;1.02;;
80297;SDS011;69599;52.622;9.230;2023-08-31T13:22:04;2.63;;;0.70;;
80297;SDS011;69599;52.622;9.230;2023-08-31T13:24:30;1.98;;;0.80;;
80297;SDS011;69599;52.622;9.230;2023-08-31T13:26:56;1.00;;;0.65;;
80297;SDS011;69599;52.622;9.230;2023-08-31T13:29:22;2.08;;;0.90;;
80297;SDS011;69599;52.622;9.230;2023-08-31T13:31:47;2.65;;;0.75;;
80297;SDS011;69599;52.622;9.230;2023-08-31T13:34:13;1.45;;;0.50;;
80297;SDS011;69599;52.622;9.230;2023-08-31T13:36:40;1.70;;;0.50;;
80297;SDS011;69599;52.622;9.230;2023-08-31T13:39:06;2.08;;;0.50;;
80297;SDS011;69599;52.622;9.230;2023-08-31T13:41:32;1.38;;;0.40;;
80297;SDS011;69599;52.622;9.230;2023-08-31T13:43:57;1.63;;;0.50;;
80297;SDS011;69599;52.622;9.230;2023-08-31T13:46:23;0.98;;;0.50;;
80297;SDS011;69599;52.622;9.230;2023-08-31T13:48:48;2.10;;;0.70;;
80297;SDS011;69599;52.622;9.230;2023-08-31T13:51:14;2.10;;;0.75;;
80297;SDS011;69599;52.622;9.230;2023-08-31T13:53:39;0.90;;;0.40;;
80297;SDS011;69599;52.622;9.230;2023-08-31T13:56:04;2.60;;;0.50;;
80297;SDS011;69599;52.622;9.230;2023-08-31T13:58:30;1.45;;;0.40;;
80297;SDS011;69599;52.622;9.230;2023-08-31T14:00:55;1.10;;;0.43;;
80297;SDS011;69599;52.622;9.230;2023-08-31T14:03:21;1.83;;;0.52;;
80297;SDS011;69599;52.622;9.230;2023-08-31T14:05:49;1.45;;;0.80;;
80297;SDS011;69599;52.622;9.230;2023-08-31T14:08:15;2.40;;;0.73;;
80297;SDS011;69599;52.622;9.230;2023-08-31T14:10:40;2.05;;;0.90;;
80297;SDS011;69599;52.622;9.230;2023-08-31T14:13:06;3.55;;;1.33;;
80297;SDS011;69599;52.622;9.230;2023-08-31T14:15:32;2.17;;;1.00;;
80297;SDS011;69599;52.622;9.230;2023-08-31T14:17:57;3.25;;;1.20;;
80297;SDS011;69599;52.622;9.230;2023-08-31T14:20:23;2.42;;;0.90;;
80297;SDS011;69599;52.622;9.230;2023-08-31T14:22:48;1.63;;;0.93;;
80297;SDS011;69599;52.622;9.230;2023-08-31T14:25:15;2.05;;;0.93;;
80297;SDS011;69599;52.622;9.230;2023-08-31T14:27:41;1.50;;;0.82;;
80297;SDS011;69599;52.622;9.230;2023-08-31T14:30:07;3.22;;;1.25;;
80297;SDS011;69599;52.622;9.230;2023-08-31T14:32:32;2.75;;;0.98;;
80297;SDS011;69599;52.622;9.230;2023-08-31T14:34:58;3.40;;;0.98;;
80297;SDS011;69599;52.622;9.230;2023-08-31T14:37:23;1.88;;;0.88;;
80297;SDS011;69599;52.622;9.230;2023-08-31T14:39:49;1.52;;;0.80;;
80297;SDS011;69599;52.622;9.230;2023-08-31T14:42:15;3.47;;;1.08;;
80297;SDS011;69599;52.622;9.230;2023-08-31T14:44:42;2.55;;;1.00;;
80297;SDS011;69599;52.622;9.230;2023-08-31T14:47:09;3.13;;;0.93;;
80297;SDS011;69599;52.622;9.230;2023-08-31T14:49:34;1.83;;;0.85;;
80297;SDS011;69599;52.622;9.230;2023-08-31T14:52:00;1.73;;;0.80;;
80297;SDS011;69599;52.622;9.230;2023-08-31T14:54:30;2.53;;;0.73;;
80297;SDS011;69599;52.622;9.230;2023-08-31T14:56:56;3.00;;;1.10;;
80297;SDS011;69599;52.622;9.230;2023-08-31T14:59:21;1.95;;;1.13;;
80297;SDS011;69599;52.622;9.230;2023-08-31T15:01:47;0.95;;;0.50;;
80297;SDS011;69599;52.622;9.230;2023-08-31T15:04:12;1.70;;;0.82;;